In Rescue
 
Open Full Screen Window  High Contrast Mode
Wind Gusting 20 knots
13
October 25, 2021 4:53 PM EDT
Weather Information
Wind Direction
  020 °
Wind Speed
  13 kt (15 mph)
Wind Gust
  20 kt (23 mph)
Altimeter
30.13 in
Visibility
10 SM
Temperature
07° C
45° F
Dewpoint
01° C
34° F
Humidity
66%
1hr Rain Fall
00.01 in.
24hr Rain Fall
00.26 in.
Sky Condition
Overcast @ 2,800 ft
MVFR

METAR KSAW 252053Z AUTO 02013G20KT 10SM OVC028 07/01 A3013 RMK AO2 T00680011 P0001

FAA Disclaimer: The data displayed is for advisory purposes only and is not to be used for flight planning or operations.